createdAt,value
2022-10-11T00:01:19.768Z,100115.56
2022-10-11T00:03:46.349Z,100108.69
2022-10-11T00:06:12.903Z,100113.06
2022-10-11T00:08:39.392Z,100107.88
2022-10-11T00:11:07.671Z,100106.09
2022-10-11T00:13:34.386Z,100103.56
2022-10-11T00:16:01.288Z,100101.88
2022-10-11T00:18:28.691Z,100102.72
2022-10-11T00:21:06.927Z,100102.72
2022-10-11T00:23:34.254Z,100111.41
2022-10-11T00:26:04.079Z,100114.88
2022-10-11T00:28:33.463Z,100115.78
2022-10-11T00:31:00.387Z,100120.13
2022-10-11T00:33:26.918Z,100114.94
2022-10-11T00:35:53.416Z,100114.13
2022-10-11T00:38:20.016Z,100114.16
2022-10-11T00:40:46.562Z,100112.41
2022-10-11T00:43:23.126Z,100115.88
2022-10-11T00:45:55.696Z,100111.53
2022-10-11T00:48:33.277Z,100114.94
2022-10-11T00:51:02.645Z,100114.94
2022-10-11T00:53:31.549Z,100114.97
2022-10-11T00:56:07.303Z,100107.13
2022-10-11T00:58:36.334Z,100117.50
2022-10-11T01:01:03.389Z,100119.22
2022-10-11T01:03:31.926Z,100113.25
2022-10-11T01:05:58.424Z,100110.63
2022-10-11T01:08:27.078Z,100115.84
2022-10-11T01:10:53.754Z,100113.25
2022-10-11T01:14:03.056Z,100123.63
2022-10-11T01:16:52.778Z,100115.88
2022-10-11T01:19:42.139Z,100116.72
2022-10-11T01:22:28.848Z,100109.78
2022-10-11T01:25:12.169Z,100117.59
2022-10-11T01:27:48.385Z,100125.34
2022-10-11T01:30:41.154Z,100123.59
2022-10-11T01:33:13.660Z,100126.22
2022-10-11T01:35:44.689Z,100121.03
2022-10-11T01:38:32.873Z,100116.66
2022-10-11T01:41:04.123Z,100114.94
2022-10-11T01:43:32.141Z,100120.13
2022-10-11T01:46:00.485Z,100114.09
2022-10-11T01:48:27.010Z,100111.53
2022-10-11T01:50:57.249Z,100109.78
2022-10-11T01:53:55.064Z,100110.63
2022-10-11T01:56:49.274Z,100114.13
2022-10-11T01:59:37.668Z,100119.41
2022-10-11T02:02:13.287Z,100109.84
2022-10-11T02:04:48.650Z,100115.94
2022-10-11T02:07:33.837Z,100109.84
2022-10-11T02:10:34.817Z,100102.03
2022-10-11T02:13:27.417Z,100102.91
2022-10-11T02:15:57.437Z,100108.09
2022-10-11T02:18:28.785Z,100101.16
2022-10-11T02:21:00.748Z,100101.16
2022-10-11T02:23:33.261Z,100097.69
2022-10-11T02:26:01.257Z,100108.13
2022-10-11T02:28:31.686Z,100089.03
2022-10-11T02:31:01.384Z,100089.03
2022-10-11T02:33:36.367Z,100089.00
2022-10-11T02:36:09.921Z,100086.41
2022-10-11T02:38:43.937Z,100089.88
2022-10-11T02:41:19.161Z,100093.31
2022-10-11T02:43:54.067Z,100089.03
2022-10-11T02:46:21.733Z,100095.09
2022-10-11T02:48:48.550Z,100086.44
2022-10-11T02:51:15.150Z,100088.16
2022-10-11T02:53:41.727Z,100090.72
2022-10-11T02:56:08.662Z,100095.03
2022-10-11T02:58:35.780Z,100089.81
2022-10-11T03:01:02.477Z,100083.75
2022-10-11T03:03:28.938Z,100083.78
2022-10-11T03:06:02.704Z,100081.16
2022-10-11T03:08:29.583Z,100082.03
2022-10-11T03:10:56.118Z,100080.28
2022-10-11T03:13:22.838Z,100080.28
2022-10-11T03:16:02.373Z,100075.97
2022-10-11T03:18:34.165Z,100082.88
2022-10-11T03:21:00.701Z,100075.97
2022-10-11T03:23:27.331Z,100078.47
2022-10-11T03:25:53.958Z,100086.31
2022-10-11T03:28:20.724Z,100081.13
2022-10-11T03:30:51.391Z,100082.88
2022-10-11T03:33:18.267Z,100078.56
2022-10-11T03:35:48.602Z,100072.50
2022-10-11T03:38:18.315Z,100071.63
2022-10-11T03:40:45.041Z,100069.91
2022-10-11T03:43:11.794Z,100067.34
2022-10-11T03:45:39.172Z,100071.69
2022-10-11T03:48:05.994Z,100065.59
2022-10-11T03:50:32.477Z,100066.44
2022-10-11T03:52:59.041Z,100069.06
2022-10-11T03:55:25.651Z,100057.78
2022-10-11T03:57:52.152Z,100062.97
2022-10-11T04:00:18.716Z,100055.19
2022-10-11T04:02:45.322Z,100053.47
2022-10-11T04:05:12.651Z,100051.81
2022-10-11T04:07:39.919Z,100051.75
2022-10-11T04:10:07.679Z,100056.09
2022-10-11T04:12:34.438Z,100052.66
2022-10-11T04:15:00.970Z,100056.16
2022-10-11T04:17:27.504Z,100053.56
2022-10-11T04:19:54.013Z,100046.66
2022-10-11T04:22:20.526Z,100045.75
2022-10-11T04:24:47.068Z,100044.06
2022-10-11T04:27:13.632Z,100050.13
2022-10-11T04:29:40.130Z,100044.09
2022-10-11T04:32:06.655Z,100060.59
2022-10-11T04:34:33.183Z,100057.09
2022-10-11T04:36:59.839Z,100058.81
2022-10-11T04:39:26.463Z,100059.69
2022-10-11T04:41:52.993Z,100056.22
2022-10-11T04:44:19.507Z,100069.22
2022-10-11T04:46:46.026Z,100063.13
2022-10-11T04:49:12.837Z,100058.81
2022-10-11T04:51:39.416Z,100058.84
2022-10-11T04:54:05.999Z,100057.97
2022-10-11T04:56:32.658Z,100061.41
2022-10-11T04:58:59.157Z,100059.69
2022-10-11T05:01:25.694Z,100057.09
2022-10-11T05:03:52.226Z,100056.25
2022-10-11T05:06:20.238Z,100053.66
2022-10-11T05:08:46.836Z,100054.53
2022-10-11T05:11:16.094Z,100061.44
2022-10-11T05:13:44.466Z,100049.31
2022-10-11T05:16:12.629Z,100058.84
2022-10-11T05:18:40.303Z,100064.00
2022-10-11T05:21:19.031Z,100067.47
2022-10-11T05:23:47.043Z,100065.75
2022-10-11T05:26:15.041Z,100070.13
2022-10-11T05:28:41.729Z,100064.06
2022-10-11T05:31:08.617Z,100067.50
2022-10-11T05:33:35.277Z,100064.91
2022-10-11T05:36:02.415Z,100055.38
2022-10-11T05:38:29.271Z,100063.19
2022-10-11T05:40:59.566Z,100069.22
2022-10-11T05:43:26.216Z,100066.66
2022-10-11T05:45:52.878Z,100076.19
2022-10-11T05:48:19.539Z,100078.78
2022-10-11T05:50:46.610Z,100077.91
2022-10-11T05:53:13.139Z,100078.78
2022-10-11T05:55:41.579Z,100086.53
2022-10-11T05:58:15.078Z,100093.47
2022-10-11T06:00:41.588Z,100086.53
2022-10-11T06:03:10.449Z,100084.81
2022-10-11T06:05:37.336Z,100082.22
2022-10-11T06:08:06.606Z,100077.03
2022-10-11T06:10:33.223Z,100080.44
2022-10-11T06:12:59.794Z,100078.72
2022-10-11T06:15:26.603Z,100081.34
2022-10-11T06:17:53.458Z,100089.13
2022-10-11T06:20:19.993Z,100085.63
2022-10-11T06:22:46.905Z,100090.84
2022-10-11T06:25:13.437Z,100095.19
2022-10-11T06:27:39.996Z,100107.31
2022-10-11T06:30:07.382Z,100105.56
2022-10-11T06:32:34.160Z,100106.44
2022-10-11T06:35:00.794Z,100095.13
2022-10-11T06:37:27.325Z,100080.38
2022-10-11T06:39:53.918Z,100071.72
2022-10-11T06:42:20.491Z,100066.59
2022-10-11T06:44:47.069Z,100070.00
2022-10-11T06:47:13.587Z,100066.53
2022-10-11T06:49:40.149Z,100073.50
2022-10-11T06:52:07.062Z,100102.09
2022-10-11T06:54:33.547Z,100123.72
2022-10-11T06:57:00.163Z,100131.53
2022-10-11T06:59:26.696Z,100128.06
2022-10-11T07:01:53.366Z,100130.63
2022-10-11T07:04:20.872Z,100130.66
2022-10-11T07:06:47.806Z,100132.38
2022-10-11T07:09:14.314Z,100138.41
2022-10-11T07:11:40.906Z,100134.09
2022-10-11T07:14:07.982Z,100151.41
2022-10-11T07:16:36.238Z,100159.22
2022-10-11T07:19:04.830Z,100164.44
2022-10-11T07:21:33.009Z,100162.69
2022-10-11T07:24:00.197Z,100167.91
2022-10-11T07:26:27.404Z,100171.34
2022-10-11T07:28:54.228Z,100164.44
2022-10-11T07:31:24.050Z,100159.25
2022-10-11T07:33:51.167Z,100163.56
2022-10-11T07:36:17.848Z,100166.19
2022-10-11T07:38:46.373Z,100179.16
2022-10-11T07:41:13.968Z,100180.06
2022-10-11T07:43:40.549Z,100188.69
2022-10-11T07:46:07.550Z,100185.22
2022-10-11T07:48:35.870Z,100191.28
2022-10-11T07:51:15.181Z,100193.06
2022-10-11T07:53:43.664Z,100198.25
2022-10-11T07:56:12.655Z,100207.78
2022-10-11T07:58:40.270Z,100203.41
2022-10-11T08:01:07.125Z,100194.78
2022-10-11T08:03:34.153Z,100201.72
2022-10-11T08:06:04.018Z,100197.41
2022-10-11T08:08:31.284Z,100206.03
2022-10-11T08:10:59.153Z,100212.97
2022-10-11T08:13:26.625Z,100220.72
2022-10-11T08:15:54.138Z,100219.88
2022-10-11T08:18:21.194Z,100220.72
2022-10-11T08:20:48.160Z,100224.16
2022-10-11T08:23:16.791Z,100233.69
2022-10-11T08:25:47.347Z,100233.72
2022-10-11T08:28:17.918Z,100240.63
2022-10-11T08:30:49.775Z,100242.38
2022-10-11T08:33:17.975Z,100244.06
2022-10-11T08:35:45.218Z,100237.03
2022-10-11T08:38:11.957Z,100240.53
2022-10-11T08:40:45.321Z,100249.22
2022-10-11T08:43:35.487Z,100253.53
2022-10-11T08:46:05.008Z,100250.97
2022-10-11T08:48:40.847Z,100246.50
2022-10-11T08:51:24.223Z,100248.16
2022-10-11T08:53:56.618Z,100252.50
2022-10-11T08:56:25.698Z,100254.22
2022-10-11T08:58:57.718Z,100254.25
2022-10-11T09:01:27.570Z,100266.44
2022-10-11T09:03:55.198Z,100253.41
2022-10-11T09:06:22.265Z,100253.38
2022-10-11T09:09:23.317Z,100257.63
2022-10-11T09:12:18.071Z,100265.44
2022-10-11T09:14:50.594Z,100263.63
2022-10-11T09:17:32.406Z,100265.31
2022-10-11T09:20:24.884Z,100267.06
2022-10-11T09:23:16.208Z,100267.94
2022-10-11T09:26:02.435Z,100268.75
2022-10-11T09:28:57.410Z,100278.44
2022-10-11T09:31:28.873Z,100270.50
2022-10-11T09:33:56.046Z,100273.88
2022-10-11T09:36:33.999Z,100273.94
2022-10-11T09:39:22.826Z,100279.25
2022-10-11T09:41:56.766Z,100278.16
2022-10-11T09:44:27.160Z,100276.41
2022-10-11T09:46:55.673Z,100280.63
2022-10-11T09:49:29.111Z,100277.19
2022-10-11T09:51:58.745Z,100278.94
2022-10-11T09:54:49.742Z,100280.84
2022-10-11T09:57:24.583Z,100285.13
2022-10-11T10:00:20.582Z,100284.97
2022-10-11T10:02:51.907Z,100291.16
2022-10-11T10:05:32.768Z,100282.31
2022-10-11T10:08:04.750Z,100289.28
2022-10-11T10:10:40.522Z,100288.56
2022-10-11T10:13:21.873Z,100292.81
2022-10-11T10:15:55.275Z,100288.31
2022-10-11T10:18:32.548Z,100284.84
2022-10-11T10:20:59.922Z,100290.19
2022-10-11T10:23:30.069Z,100286.69
2022-10-11T10:26:22.717Z,100290.78
2022-10-11T10:29:16.860Z,100289.22
2022-10-11T10:32:12.912Z,100290.91
2022-10-11T10:34:41.182Z,100287.56
2022-10-11T10:37:29.433Z,100285.78
2022-10-11T10:40:20.819Z,100287.56
2022-10-11T10:42:47.608Z,100292.75
2022-10-11T10:45:21.219Z,100294.34
2022-10-11T10:48:10.726Z,100291.00
2022-10-11T10:51:10.530Z,100286.69
2022-10-11T10:53:44.354Z,100284.78
2022-10-11T10:56:13.891Z,100280.56
2022-10-11T10:58:55.476Z,100277.78
2022-10-11T11:01:33.950Z,100275.06
2022-10-11T11:04:24.260Z,100270.78
2022-10-11T11:07:23.827Z,100268.09
2022-10-11T11:10:06.270Z,100267.06
2022-10-11T11:12:46.378Z,100269.66
2022-10-11T11:15:34.267Z,100262.66
2022-10-11T11:18:52.443Z,100255.78
2022-10-11T11:21:18.837Z,100264.34
2022-10-11T11:24:12.899Z,100253.25
2022-10-11T11:27:10.893Z,100256.66
2022-10-11T11:29:50.752Z,100260.00
2022-10-11T11:32:24.030Z,100261.81
2022-10-11T11:35:03.810Z,100257.25
2022-10-11T11:37:40.757Z,100255.44
2022-10-11T11:40:19.806Z,100247.59
2022-10-11T11:42:49.057Z,100239.59
2022-10-11T11:45:24.062Z,100244.72
2022-10-11T11:48:03.278Z,100237.66
2022-10-11T11:50:44.985Z,100238.63
2022-10-11T11:53:34.313Z,100234.31
2022-10-11T11:56:25.670Z,100238.72
2022-10-11T11:59:05.668Z,100234.38
2022-10-11T12:01:35.030Z,100226.38
2022-10-11T12:04:34.181Z,100220.28
2022-10-11T12:07:15.826Z,100208.81
2022-10-11T12:09:46.656Z,100215.53
2022-10-11T12:12:36.405Z,100205.97
2022-10-11T12:15:21.106Z,100205.63
2022-10-11T12:17:53.587Z,100195.91
2022-10-11T12:20:41.697Z,100197.50
2022-10-11T12:23:29.162Z,100195.13
2022-10-11T12:26:27.884Z,100188.16
2022-10-11T12:28:57.323Z,100183.59
2022-10-11T12:31:26.602Z,100183.78
2022-10-11T12:34:02.356Z,100185.66
2022-10-11T12:36:29.644Z,100181.34
2022-10-11T12:39:20.901Z,100187.44
2022-10-11T12:41:47.380Z,100184.00
2022-10-11T12:44:23.771Z,100185.59
2022-10-11T12:46:50.282Z,100181.38
2022-10-11T12:49:16.735Z,100184.19
2022-10-11T12:51:55.665Z,100182.34
2022-10-11T12:54:37.136Z,100181.38
2022-10-11T12:57:06.359Z,100181.47
2022-10-11T12:59:39.713Z,100176.84
2022-10-11T13:02:28.713Z,100173.25
2022-10-11T13:05:23.503Z,100172.19
2022-10-11T13:07:52.332Z,100165.94
2022-10-11T13:10:33.230Z,100159.13
2022-10-11T13:13:04.345Z,100167.94
2022-10-11T13:15:31.399Z,100157.22
2022-10-11T13:18:00.163Z,100151.81
2022-10-11T13:20:31.280Z,100150.31
2022-10-11T13:22:58.677Z,100143.94
2022-10-11T13:25:27.090Z,100150.13
2022-10-11T13:27:56.681Z,100151.03
2022-10-11T13:30:29.594Z,100138.22
2022-10-11T13:32:56.676Z,100146.41
2022-10-11T13:35:31.616Z,100145.50
2022-10-11T13:37:58.881Z,100135.72
2022-10-11T13:40:26.728Z,100137.31
2022-10-11T13:42:55.135Z,100136.97
2022-10-11T13:45:24.821Z,100128.38
2022-10-11T13:47:52.980Z,100120.38
2022-10-11T13:50:23.888Z,100131.22
2022-10-11T13:52:54.311Z,100122.59
2022-10-11T13:55:28.894Z,100126.84
2022-10-11T13:57:58.012Z,100119.28
2022-10-11T14:00:47.512Z,100118.75
2022-10-11T14:03:13.940Z,100128.66
2022-10-11T14:05:43.352Z,100129.94
2022-10-11T14:08:25.315Z,100127.22
2022-10-11T14:10:56.753Z,100123.75
2022-10-11T14:13:31.738Z,100123.78
2022-10-11T14:16:06.211Z,100121.78
2022-10-11T14:18:45.522Z,100128.63
2022-10-11T14:21:18.730Z,100129.47
2022-10-11T14:23:46.636Z,100127.09
2022-10-11T14:26:18.557Z,100120.22
2022-10-11T14:28:46.064Z,100125.16
2022-10-11T14:31:12.696Z,100120.66
2022-10-11T14:33:39.364Z,100123.41
2022-10-11T14:36:06.278Z,100124.38
2022-10-11T14:38:32.948Z,100117.38
2022-10-11T14:40:59.457Z,100114.41
2022-10-11T14:43:26.194Z,100108.31
2022-10-11T14:45:53.238Z,100111.81
2022-10-11T14:48:36.612Z,100114.53
2022-10-11T14:51:07.243Z,100115.91
2022-10-11T14:53:36.363Z,100110.19
2022-10-11T14:56:08.130Z,100113.97
2022-10-11T14:58:34.865Z,100104.56
2022-10-11T15:01:01.337Z,100106.50
2022-10-11T15:03:27.917Z,100100.81
2022-10-11T15:05:54.834Z,100103.63
2022-10-11T15:08:21.382Z,100105.75
2022-10-11T15:10:48.100Z,100111.88
2022-10-11T15:13:14.686Z,100111.22
2022-10-11T15:15:41.592Z,100102.41
2022-10-11T15:18:12.374Z,100101.06
2022-10-11T15:20:42.369Z,100100.16
2022-10-11T15:23:10.800Z,100105.00
2022-10-11T15:25:38.943Z,100099.81
2022-10-11T15:28:06.789Z,100105.84
2022-10-11T15:30:40.982Z,100107.38
2022-10-11T15:33:09.025Z,100103.16
2022-10-11T15:35:35.887Z,100111.72
2022-10-11T15:38:02.378Z,100096.00
2022-10-11T15:40:36.832Z,100100.81
2022-10-11T15:43:03.721Z,100100.19
2022-10-11T15:45:30.949Z,100098.75
2022-10-11T15:47:58.117Z,100098.09
2022-10-11T15:50:34.475Z,100094.75
2022-10-11T15:53:04.860Z,100099.94
2022-10-11T15:55:33.846Z,100091.81
2022-10-11T15:58:01.547Z,100094.38
2022-10-11T16:00:29.035Z,100098.84
2022-10-11T16:02:57.308Z,100087.91
2022-10-11T16:05:26.631Z,100091.28
2022-10-11T16:07:54.512Z,100093.34
2022-10-11T16:10:21.725Z,100097.34
2022-10-11T16:12:48.438Z,100100.81
2022-10-11T16:15:15.377Z,100106.13
2022-10-11T16:17:41.946Z,100100.25
2022-10-11T16:20:08.903Z,100105.88
2022-10-11T16:22:35.922Z,100103.16
2022-10-11T16:25:04.516Z,100111.47
2022-10-11T16:27:31.394Z,100105.28
2022-10-11T16:29:58.264Z,100108.44
2022-10-11T16:32:25.402Z,100100.34
2022-10-11T16:34:51.931Z,100105.41
2022-10-11T16:37:18.958Z,100113.53
2022-10-11T16:39:46.302Z,100106.72
2022-10-11T16:42:12.797Z,100110.16
2022-10-11T16:44:39.351Z,100102.59
2022-10-11T16:47:06.722Z,100106.69
2022-10-11T16:49:33.545Z,100098.25
2022-10-11T16:52:02.229Z,100102.00
2022-10-11T16:54:30.292Z,100112.91
2022-10-11T16:56:58.022Z,100120.38
2022-10-11T16:59:24.841Z,100118.78
2022-10-11T17:01:51.546Z,100122.03
2022-10-11T17:04:18.165Z,100127.94
2022-10-11T17:06:44.970Z,100122.78
2022-10-11T17:09:11.593Z,100122.06
2022-10-11T17:11:38.099Z,100125.63
2022-10-11T17:14:06.031Z,100131.81
2022-10-11T17:16:32.731Z,100129.31
2022-10-11T17:18:59.237Z,100133.75
2022-10-11T17:21:25.852Z,100131.25
2022-10-11T17:23:52.403Z,100133.16
2022-10-11T17:26:26.287Z,100128.88
2022-10-11T17:28:54.890Z,100133.97
2022-10-11T17:31:22.195Z,100134.06
2022-10-11T17:33:48.770Z,100130.56
2022-10-11T17:36:18.310Z,100139.41
2022-10-11T17:38:45.308Z,100142.19
2022-10-11T17:41:12.218Z,100146.59
2022-10-11T17:43:38.925Z,100147.56
2022-10-11T17:46:06.746Z,100144.00
2022-10-11T17:48:36.658Z,100146.50
2022-10-11T17:51:18.493Z,100150.09
2022-10-11T17:53:47.295Z,100149.28
2022-10-11T17:56:17.194Z,100144.94
2022-10-11T17:58:44.085Z,100145.91
2022-10-11T18:01:13.583Z,100146.81
2022-10-11T18:03:40.982Z,100142.63
2022-10-11T18:06:10.806Z,100141.84
2022-10-11T18:08:40.619Z,100144.34
2022-10-11T18:11:13.074Z,100150.53
2022-10-11T18:13:42.931Z,100151.41
2022-10-11T18:16:10.467Z,100152.16
2022-10-11T18:18:37.363Z,100153.00
2022-10-11T18:21:04.073Z,100153.13
2022-10-11T18:23:31.392Z,100154.00
2022-10-11T18:25:57.858Z,100154.94
2022-10-11T18:28:25.289Z,100152.38
2022-10-11T18:30:53.372Z,100155.09
2022-10-11T18:33:19.932Z,100155.97
2022-10-11T18:35:46.531Z,100151.56
2022-10-11T18:38:13.098Z,100149.78
2022-10-11T18:40:44.726Z,100148.97
2022-10-11T18:43:13.404Z,100155.16
2022-10-11T18:45:39.938Z,100162.16
2022-10-11T18:48:08.566Z,100163.06
2022-10-11T18:50:35.621Z,100164.88
2022-10-11T18:53:02.361Z,100174.47
2022-10-11T18:55:28.902Z,100161.44
2022-10-11T18:57:55.919Z,100167.56
2022-10-11T19:00:40.125Z,100165.81
2022-10-11T19:03:07.532Z,100170.19
2022-10-11T19:05:34.046Z,100175.44
2022-10-11T19:08:00.523Z,100171.09
2022-10-11T19:10:27.167Z,100173.72
2022-10-11T19:12:53.664Z,100172.91
2022-10-11T19:15:20.129Z,100180.63
2022-10-11T19:17:46.647Z,100178.09
2022-10-11T19:20:13.182Z,100177.13
2022-10-11T19:22:39.982Z,100178.88
2022-10-11T19:25:06.785Z,100173.75
2022-10-11T19:27:33.286Z,100176.44
2022-10-11T19:30:00.429Z,100176.34
2022-10-11T19:32:28.662Z,100178.09
2022-10-11T19:34:55.434Z,100181.66
2022-10-11T19:37:22.004Z,100179.16
2022-10-11T19:39:48.543Z,100178.25
2022-10-11T19:42:16.060Z,100184.44
2022-10-11T19:44:44.694Z,100181.03
2022-10-11T19:47:11.526Z,100184.53
2022-10-11T19:49:38.658Z,100193.09
2022-10-11T19:52:05.297Z,100190.47
2022-10-11T19:54:32.114Z,100192.22
2022-10-11T19:56:59.399Z,100195.78
2022-10-11T19:59:26.865Z,100190.59
2022-10-11T20:01:53.577Z,100194.94
2022-10-11T20:04:51.106Z,100194.94
2022-10-11T20:07:07.600Z,100198.38
2022-10-11T20:09:34.136Z,100206.19
2022-10-11T20:12:00.613Z,100207.09
2022-10-11T20:14:27.159Z,100200.09
2022-10-11T20:16:53.814Z,100200.19
2022-10-11T20:19:23.893Z,100198.44
2022-10-11T20:21:54.432Z,100196.75
2022-10-11T20:24:20.952Z,100201.91
2022-10-11T20:26:47.486Z,100205.41
2022-10-11T20:29:13.974Z,100201.09
2022-10-11T20:31:41.788Z,100208.03
2022-10-11T20:34:10.022Z,100207.19
2022-10-11T20:36:36.812Z,100201.97
2022-10-11T20:39:05.902Z,100207.22
2022-10-11T20:41:36.943Z,100215.09
2022-10-11T20:44:04.812Z,100207.28
2022-10-11T20:46:33.959Z,100215.94
2022-10-11T20:49:03.498Z,100222.00
2022-10-11T20:51:33.359Z,100222.91
2022-10-11T20:54:01.013Z,100223.75
2022-10-11T20:56:28.100Z,100227.25
2022-10-11T20:58:56.335Z,100220.34
2022-10-11T21:01:26.357Z,100225.59
2022-10-11T21:03:53.159Z,100224.72
2022-10-11T21:06:19.693Z,100226.53
2022-10-11T21:08:46.229Z,100226.50
2022-10-11T21:11:12.725Z,100228.19
2022-10-11T21:13:40.493Z,100226.53
2022-10-11T21:16:12.729Z,100220.47
2022-10-11T21:18:39.694Z,100228.28
2022-10-11T21:21:11.723Z,100226.59
2022-10-11T21:23:38.872Z,100224.03
2022-10-11T21:26:08.255Z,100223.13
2022-10-11T21:28:35.087Z,100226.63
2022-10-11T21:31:09.905Z,100231.81
2022-10-11T21:33:37.483Z,100231.81
2022-10-11T21:36:12.856Z,100237.00
2022-10-11T21:38:39.978Z,100233.56
2022-10-11T21:41:09.990Z,100237.91
2022-10-11T21:43:38.134Z,100234.44
2022-10-11T21:46:09.717Z,100242.25
2022-10-11T21:48:36.181Z,100246.66
2022-10-11T21:51:02.803Z,100246.69
2022-10-11T21:53:29.609Z,100244.06
2022-10-11T21:56:00.948Z,100255.28
2022-10-11T21:58:28.118Z,100251.84
2022-10-11T22:00:54.985Z,100251.84
2022-10-11T22:03:21.555Z,100247.53
2022-10-11T22:05:48.544Z,100250.13
2022-10-11T22:08:15.256Z,100253.63
2022-10-11T22:10:52.001Z,100253.59
2022-10-11T22:13:18.546Z,100255.38
2022-10-11T22:15:45.017Z,100255.38
2022-10-11T22:18:11.640Z,100257.09
2022-10-11T22:20:38.216Z,100257.91
2022-10-11T22:23:04.935Z,100251.81
2022-10-11T22:25:35.755Z,100257.03
2022-10-11T22:28:02.622Z,100256.19
2022-10-11T22:30:29.133Z,100251.03
2022-10-11T22:32:55.670Z,100251.03
2022-10-11T22:35:22.438Z,100247.53
2022-10-11T22:37:50.348Z,100248.44
2022-10-11T22:40:17.921Z,100250.16
2022-10-11T22:42:44.718Z,100251.91
2022-10-11T22:45:11.608Z,100256.25
2022-10-11T22:47:38.600Z,100255.41
2022-10-11T22:50:05.705Z,100251.97
2022-10-11T22:52:32.176Z,100250.22
2022-10-11T22:54:58.673Z,100243.28
2022-10-11T22:57:25.201Z,100247.63
2022-10-11T22:59:51.730Z,100245.88
2022-10-11T23:02:18.253Z,100239.81
2022-10-11T23:04:44.773Z,100242.41
2022-10-11T23:07:11.261Z,100250.22
2022-10-11T23:09:38.249Z,100245.03
2022-10-11T23:12:05.106Z,100244.16
2022-10-11T23:14:31.596Z,100238.97
2022-10-11T23:16:58.078Z,100238.91
2022-10-11T23:19:24.597Z,100232.84
2022-10-11T23:21:51.109Z,100225.91
2022-10-11T23:24:17.638Z,100221.59
2022-10-11T23:26:44.239Z,100225.94
2022-10-11T23:29:10.891Z,100222.47
2022-10-11T23:31:37.444Z,100215.50
2022-10-11T23:34:03.998Z,100219.00
2022-10-11T23:36:30.521Z,100222.47
2022-10-11T23:38:58.603Z,100221.59
2022-10-11T23:41:27.663Z,100218.94
2022-10-11T23:43:54.557Z,100214.63
2022-10-11T23:46:21.243Z,100215.50
2022-10-11T23:48:48.326Z,100223.31
2022-10-11T23:51:15.791Z,100217.25
2022-10-11T23:53:42.365Z,100225.06
2022-10-11T23:56:11.715Z,100223.31
2022-10-11T23:58:38.623Z,100228.53
